sensor_id;sensor_type;location;lat;lon;timestamp;P1;durP1;ratioP1;P2;durP2;ratioP2
60354;SDS011;46198;51.464;-0.066;2023-04-16T00:00:04;32.73;;;19.27;;
60354;SDS011;46198;51.464;-0.066;2023-04-16T00:02:39;29.43;;;19.13;;
60354;SDS011;46198;51.464;-0.066;2023-04-16T00:05:07;31.23;;;19.70;;
60354;SDS011;46198;51.464;-0.066;2023-04-16T00:07:37;34.03;;;19.97;;
60354;SDS011;46198;51.464;-0.066;2023-04-16T00:10:05;30.40;;;19.67;;
60354;SDS011;46198;51.464;-0.066;2023-04-16T00:12:34;29.40;;;19.50;;
60354;SDS011;46198;51.464;-0.066;2023-04-16T00:15:03;31.23;;;20.10;;
60354;SDS011;46198;51.464;-0.066;2023-04-16T00:17:31;35.47;;;21.27;;
60354;SDS011;46198;51.464;-0.066;2023-04-16T00:19:59;30.53;;;18.87;;
60354;SDS011;46198;51.464;-0.066;2023-04-16T00:22:27;33.90;;;19.53;;
60354;SDS011;46198;51.464;-0.066;2023-04-16T00:24:57;30.50;;;18.50;;
60354;SDS011;46198;51.464;-0.066;2023-04-16T00:27:25;31.47;;;20.03;;
60354;SDS011;46198;51.464;-0.066;2023-04-16T00:29:53;31.07;;;19.70;;
60354;SDS011;46198;51.464;-0.066;2023-04-16T00:32:21;32.67;;;19.40;;
60354;SDS011;46198;51.464;-0.066;2023-04-16T00:34:50;32.67;;;21.57;;
60354;SDS011;46198;51.464;-0.066;2023-04-16T00:37:18;34.73;;;21.03;;
60354;SDS011;46198;51.464;-0.066;2023-04-16T00:39:46;32.23;;;20.03;;
60354;SDS011;46198;51.464;-0.066;2023-04-16T00:42:15;32.97;;;20.57;;
60354;SDS011;46198;51.464;-0.066;2023-04-16T00:44:43;31.80;;;20.00;;
60354;SDS011;46198;51.464;-0.066;2023-04-16T00:47:11;30.73;;;20.07;;
60354;SDS011;46198;51.464;-0.066;2023-04-16T00:49:39;29.27;;;19.43;;
60354;SDS011;46198;51.464;-0.066;2023-04-16T00:52:07;30.23;;;19.87;;
60354;SDS011;46198;51.464;-0.066;2023-04-16T00:54:39;30.13;;;18.90;;
60354;SDS011;46198;51.464;-0.066;2023-04-16T00:57:07;26.50;;;17.57;;
60354;SDS011;46198;51.464;-0.066;2023-04-16T00:59:37;28.30;;;18.27;;
60354;SDS011;46198;51.464;-0.066;2023-04-16T01:02:05;31.87;;;18.47;;
60354;SDS011;46198;51.464;-0.066;2023-04-16T01:04:34;28.80;;;17.50;;
60354;SDS011;46198;51.464;-0.066;2023-04-16T01:07:02;32.83;;;17.93;;
60354;SDS011;46198;51.464;-0.066;2023-04-16T01:09:30;32.03;;;18.73;;
60354;SDS011;46198;51.464;-0.066;2023-04-16T01:11:58;28.70;;;17.93;;
60354;SDS011;46198;51.464;-0.066;2023-04-16T01:14:27;26.63;;;17.87;;
60354;SDS011;46198;51.464;-0.066;2023-04-16T01:16:58;27.10;;;17.93;;
60354;SDS011;46198;51.464;-0.066;2023-04-16T01:19:27;23.00;;;16.67;;
60354;SDS011;46198;51.464;-0.066;2023-04-16T01:21:58;24.80;;;14.73;;
60354;SDS011;46198;51.464;-0.066;2023-04-16T01:24:26;27.77;;;15.87;;
60354;SDS011;46198;51.464;-0.066;2023-04-16T01:26:54;26.83;;;15.73;;
60354;SDS011;46198;51.464;-0.066;2023-04-16T01:29:24;23.92;;;15.25;;
60354;SDS011;46198;51.464;-0.066;2023-04-16T01:31:55;28.50;;;16.88;;
60354;SDS011;46198;51.464;-0.066;2023-04-16T01:34:35;26.80;;;16.00;;
60354;SDS011;46198;51.464;-0.066;2023-04-16T01:37:04;28.20;;;16.13;;
60354;SDS011;46198;51.464;-0.066;2023-04-16T01:39:32;26.57;;;16.27;;
60354;SDS011;46198;51.464;-0.066;2023-04-16T01:42:00;27.03;;;16.70;;
60354;SDS011;46198;51.464;-0.066;2023-04-16T01:44:28;27.20;;;16.33;;
60354;SDS011;46198;51.464;-0.066;2023-04-16T01:46:57;26.43;;;16.07;;
60354;SDS011;46198;51.464;-0.066;2023-04-16T01:49:25;26.17;;;15.80;;
60354;SDS011;46198;51.464;-0.066;2023-04-16T01:51:53;22.70;;;15.70;;
60354;SDS011;46198;51.464;-0.066;2023-04-16T01:54:22;29.37;;;16.57;;
60354;SDS011;46198;51.464;-0.066;2023-04-16T01:56:51;26.50;;;15.63;;
60354;SDS011;46198;51.464;-0.066;2023-04-16T01:59:22;27.47;;;16.97;;
60354;SDS011;46198;51.464;-0.066;2023-04-16T02:01:50;25.77;;;15.47;;
60354;SDS011;46198;51.464;-0.066;2023-04-16T02:04:18;25.33;;;15.90;;
60354;SDS011;46198;51.464;-0.066;2023-04-16T02:06:46;25.30;;;15.60;;
60354;SDS011;46198;51.464;-0.066;2023-04-16T02:09:14;26.23;;;16.23;;
60354;SDS011;46198;51.464;-0.066;2023-04-16T02:11:44;23.90;;;16.00;;
60354;SDS011;46198;51.464;-0.066;2023-04-16T02:14:12;24.67;;;15.43;;
60354;SDS011;46198;51.464;-0.066;2023-04-16T02:16:41;25.13;;;15.47;;
60354;SDS011;46198;51.464;-0.066;2023-04-16T02:19:25;23.23;;;14.87;;
60354;SDS011;46198;51.464;-0.066;2023-04-16T02:21:54;21.43;;;14.47;;
60354;SDS011;46198;51.464;-0.066;2023-04-16T02:24:22;21.70;;;14.97;;
60354;SDS011;46198;51.464;-0.066;2023-04-16T02:26:52;27.07;;;15.30;;
60354;SDS011;46198;51.464;-0.066;2023-04-16T02:29:20;23.60;;;15.70;;
60354;SDS011;46198;51.464;-0.066;2023-04-16T02:31:57;22.67;;;14.60;;
60354;SDS011;46198;51.464;-0.066;2023-04-16T02:34:27;28.50;;;15.67;;
60354;SDS011;46198;51.464;-0.066;2023-04-16T02:36:55;25.40;;;15.73;;
60354;SDS011;46198;51.464;-0.066;2023-04-16T02:39:25;28.43;;;16.80;;
60354;SDS011;46198;51.464;-0.066;2023-04-16T02:41:55;24.53;;;15.57;;
60354;SDS011;46198;51.464;-0.066;2023-04-16T02:44:23;23.47;;;15.97;;
60354;SDS011;46198;51.464;-0.066;2023-04-16T02:46:51;28.60;;;17.67;;
60354;SDS011;46198;51.464;-0.066;2023-04-16T02:49:19;25.93;;;16.00;;
60354;SDS011;46198;51.464;-0.066;2023-04-16T02:51:47;22.03;;;14.80;;
60354;SDS011;46198;51.464;-0.066;2023-04-16T02:54:15;26.07;;;15.87;;
60354;SDS011;46198;51.464;-0.066;2023-04-16T02:56:44;25.97;;;15.23;;
60354;SDS011;46198;51.464;-0.066;2023-04-16T02:59:13;23.80;;;15.13;;
60354;SDS011;46198;51.464;-0.066;2023-04-16T03:01:41;24.67;;;16.13;;
60354;SDS011;46198;51.464;-0.066;2023-04-16T03:04:09;23.33;;;15.53;;
60354;SDS011;46198;51.464;-0.066;2023-04-16T03:06:37;21.77;;;14.83;;
60354;SDS011;46198;51.464;-0.066;2023-04-16T03:09:06;26.03;;;15.23;;
60354;SDS011;46198;51.464;-0.066;2023-04-16T03:11:34;25.87;;;15.53;;
60354;SDS011;46198;51.464;-0.066;2023-04-16T03:14:03;23.47;;;14.30;;
60354;SDS011;46198;51.464;-0.066;2023-04-16T03:16:33;23.47;;;15.20;;
60354;SDS011;46198;51.464;-0.066;2023-04-16T03:19:01;19.67;;;13.30;;
60354;SDS011;46198;51.464;-0.066;2023-04-16T03:21:29;24.80;;;15.57;;
60354;SDS011;46198;51.464;-0.066;2023-04-16T03:23:57;20.90;;;14.23;;
60354;SDS011;46198;51.464;-0.066;2023-04-16T03:26:25;24.07;;;13.90;;
60354;SDS011;46198;51.464;-0.066;2023-04-16T03:28:54;21.90;;;13.77;;
60354;SDS011;46198;51.464;-0.066;2023-04-16T03:35:07;22.03;;;13.83;;
60354;SDS011;46198;51.464;-0.066;2023-04-16T03:37:36;22.42;;;14.15;;
60354;SDS011;46198;51.464;-0.066;2023-04-16T03:40:04;20.97;;;13.27;;
60354;SDS011;46198;51.464;-0.066;2023-04-16T03:42:33;21.70;;;12.33;;
60354;SDS011;46198;51.464;-0.066;2023-04-16T03:45:01;21.83;;;14.07;;
60354;SDS011;46198;51.464;-0.066;2023-04-16T03:47:30;25.33;;;14.67;;
60354;SDS011;46198;51.464;-0.066;2023-04-16T03:50:01;21.83;;;13.55;;
60354;SDS011;46198;51.464;-0.066;2023-04-16T03:52:31;20.27;;;13.30;;
60354;SDS011;46198;51.464;-0.066;2023-04-16T03:54:59;19.40;;;11.70;;
60354;SDS011;46198;51.464;-0.066;2023-04-16T03:57:30;17.83;;;12.03;;
60354;SDS011;46198;51.464;-0.066;2023-04-16T04:00:04;21.03;;;14.27;;
60354;SDS011;46198;51.464;-0.066;2023-04-16T04:02:40;20.00;;;11.60;;
60354;SDS011;46198;51.464;-0.066;2023-04-16T04:05:16;20.73;;;11.63;;
60354;SDS011;46198;51.464;-0.066;2023-04-16T04:07:46;19.10;;;12.70;;
60354;SDS011;46198;51.464;-0.066;2023-04-16T04:10:14;21.17;;;12.57;;
60354;SDS011;46198;51.464;-0.066;2023-04-16T04:12:42;22.73;;;13.07;;
60354;SDS011;46198;51.464;-0.066;2023-04-16T04:15:11;24.33;;;12.77;;
60354;SDS011;46198;51.464;-0.066;2023-04-16T04:17:41;21.57;;;14.27;;
60354;SDS011;46198;51.464;-0.066;2023-04-16T04:20:09;20.37;;;12.73;;
60354;SDS011;46198;51.464;-0.066;2023-04-16T04:22:40;21.37;;;13.23;;
60354;SDS011;46198;51.464;-0.066;2023-04-16T04:25:12;20.97;;;13.63;;
60354;SDS011;46198;51.464;-0.066;2023-04-16T04:27:40;22.87;;;13.73;;
60354;SDS011;46198;51.464;-0.066;2023-04-16T04:30:08;20.20;;;13.63;;
60354;SDS011;46198;51.464;-0.066;2023-04-16T04:32:38;21.63;;;13.65;;
60354;SDS011;46198;51.464;-0.066;2023-04-16T04:35:07;18.63;;;12.57;;
60354;SDS011;46198;51.464;-0.066;2023-04-16T04:37:36;21.17;;;12.77;;
60354;SDS011;46198;51.464;-0.066;2023-04-16T04:40:18;16.80;;;12.18;;
60354;SDS011;46198;51.464;-0.066;2023-04-16T04:42:46;20.73;;;12.33;;
60354;SDS011;46198;51.464;-0.066;2023-04-16T04:45:14;21.40;;;13.03;;
60354;SDS011;46198;51.464;-0.066;2023-04-16T04:47:42;20.17;;;13.13;;
60354;SDS011;46198;51.464;-0.066;2023-04-16T04:50:10;22.47;;;13.33;;
60354;SDS011;46198;51.464;-0.066;2023-04-16T04:52:39;19.53;;;12.60;;
60354;SDS011;46198;51.464;-0.066;2023-04-16T04:55:07;20.83;;;12.57;;
60354;SDS011;46198;51.464;-0.066;2023-04-16T04:57:37;20.93;;;13.60;;
60354;SDS011;46198;51.464;-0.066;2023-04-16T05:00:06;18.47;;;11.73;;
60354;SDS011;46198;51.464;-0.066;2023-04-16T05:02:41;20.57;;;12.93;;
60354;SDS011;46198;51.464;-0.066;2023-04-16T05:05:09;20.13;;;12.53;;
60354;SDS011;46198;51.464;-0.066;2023-04-16T05:07:37;22.73;;;12.90;;
60354;SDS011;46198;51.464;-0.066;2023-04-16T05:10:06;24.30;;;13.50;;
60354;SDS011;46198;51.464;-0.066;2023-04-16T05:15:30;20.60;;;12.37;;
60354;SDS011;46198;51.464;-0.066;2023-04-16T05:17:57;19.20;;;12.93;;
60354;SDS011;46198;51.464;-0.066;2023-04-16T05:20:26;17.93;;;12.83;;
60354;SDS011;46198;51.464;-0.066;2023-04-16T05:22:54;20.60;;;12.50;;
60354;SDS011;46198;51.464;-0.066;2023-04-16T05:25:22;23.93;;;13.53;;
60354;SDS011;46198;51.464;-0.066;2023-04-16T05:27:50;25.53;;;13.37;;
60354;SDS011;46198;51.464;-0.066;2023-04-16T05:30:19;22.27;;;14.37;;
60354;SDS011;46198;51.464;-0.066;2023-04-16T05:32:47;22.47;;;14.03;;
60354;SDS011;46198;51.464;-0.066;2023-04-16T05:35:15;20.87;;;12.93;;
60354;SDS011;46198;51.464;-0.066;2023-04-16T05:37:43;24.80;;;14.03;;
60354;SDS011;46198;51.464;-0.066;2023-04-16T05:40:12;23.40;;;13.87;;
60354;SDS011;46198;51.464;-0.066;2023-04-16T05:42:40;19.80;;;12.87;;
60354;SDS011;46198;51.464;-0.066;2023-04-16T05:45:09;18.53;;;12.60;;
60354;SDS011;46198;51.464;-0.066;2023-04-16T05:47:38;21.53;;;13.47;;
60354;SDS011;46198;51.464;-0.066;2023-04-16T05:50:06;23.87;;;14.00;;
60354;SDS011;46198;51.464;-0.066;2023-04-16T05:52:35;22.23;;;13.50;;
60354;SDS011;46198;51.464;-0.066;2023-04-16T05:55:03;23.07;;;14.63;;
60354;SDS011;46198;51.464;-0.066;2023-04-16T05:57:31;24.90;;;14.07;;
60354;SDS011;46198;51.464;-0.066;2023-04-16T05:59:59;23.70;;;14.03;;
60354;SDS011;46198;51.464;-0.066;2023-04-16T06:02:38;23.80;;;14.33;;
60354;SDS011;46198;51.464;-0.066;2023-04-16T06:05:07;25.57;;;14.00;;
60354;SDS011;46198;51.464;-0.066;2023-04-16T06:07:35;25.13;;;14.67;;
60354;SDS011;46198;51.464;-0.066;2023-04-16T06:10:03;26.93;;;15.30;;
60354;SDS011;46198;51.464;-0.066;2023-04-16T06:12:32;26.13;;;14.80;;
60354;SDS011;46198;51.464;-0.066;2023-04-16T06:15:00;22.70;;;15.20;;
60354;SDS011;46198;51.464;-0.066;2023-04-16T06:17:29;24.00;;;15.37;;
60354;SDS011;46198;51.464;-0.066;2023-04-16T06:19:58;27.93;;;15.43;;
60354;SDS011;46198;51.464;-0.066;2023-04-16T06:22:26;28.33;;;16.30;;
60354;SDS011;46198;51.464;-0.066;2023-04-16T06:24:54;28.03;;;16.73;;
60354;SDS011;46198;51.464;-0.066;2023-04-16T06:27:22;27.30;;;15.93;;
60354;SDS011;46198;51.464;-0.066;2023-04-16T06:29:51;33.37;;;16.53;;
60354;SDS011;46198;51.464;-0.066;2023-04-16T06:32:19;31.23;;;16.80;;
60354;SDS011;46198;51.464;-0.066;2023-04-16T06:34:47;30.80;;;17.87;;
60354;SDS011;46198;51.464;-0.066;2023-04-16T06:37:16;24.53;;;16.13;;
60354;SDS011;46198;51.464;-0.066;2023-04-16T06:39:44;27.87;;;15.30;;
60354;SDS011;46198;51.464;-0.066;2023-04-16T06:42:12;22.37;;;15.37;;
60354;SDS011;46198;51.464;-0.066;2023-04-16T06:44:41;23.33;;;15.73;;
60354;SDS011;46198;51.464;-0.066;2023-04-16T06:47:09;27.13;;;15.53;;
60354;SDS011;46198;51.464;-0.066;2023-04-16T06:49:37;28.77;;;16.33;;
60354;SDS011;46198;51.464;-0.066;2023-04-16T06:52:05;22.73;;;14.70;;
60354;SDS011;46198;51.464;-0.066;2023-04-16T06:54:35;26.20;;;15.57;;
60354;SDS011;46198;51.464;-0.066;2023-04-16T06:57:03;28.47;;;15.77;;
60354;SDS011;46198;51.464;-0.066;2023-04-16T06:59:31;25.43;;;15.23;;
60354;SDS011;46198;51.464;-0.066;2023-04-16T07:01:59;25.93;;;15.40;;
60354;SDS011;46198;51.464;-0.066;2023-04-16T07:04:27;24.33;;;15.90;;
60354;SDS011;46198;51.464;-0.066;2023-04-16T07:06:55;26.20;;;15.07;;
60354;SDS011;46198;51.464;-0.066;2023-04-16T07:09:23;21.80;;;14.20;;
60354;SDS011;46198;51.464;-0.066;2023-04-16T07:11:53;23.97;;;14.93;;
60354;SDS011;46198;51.464;-0.066;2023-04-16T07:14:21;25.70;;;14.90;;
60354;SDS011;46198;51.464;-0.066;2023-04-16T07:16:49;21.27;;;14.33;;
60354;SDS011;46198;51.464;-0.066;2023-04-16T07:19:17;22.50;;;13.93;;
60354;SDS011;46198;51.464;-0.066;2023-04-16T07:21:45;24.57;;;14.37;;
60354;SDS011;46198;51.464;-0.066;2023-04-16T07:24:13;21.23;;;14.13;;
60354;SDS011;46198;51.464;-0.066;2023-04-16T07:26:41;25.07;;;14.53;;
60354;SDS011;46198;51.464;-0.066;2023-04-16T07:29:11;21.87;;;14.10;;
60354;SDS011;46198;51.464;-0.066;2023-04-16T07:31:39;22.43;;;14.50;;
60354;SDS011;46198;51.464;-0.066;2023-04-16T07:34:07;24.83;;;15.18;;
60354;SDS011;46198;51.464;-0.066;2023-04-16T07:36:35;22.35;;;13.57;;
60354;SDS011;46198;51.464;-0.066;2023-04-16T07:39:03;21.52;;;13.68;;
60354;SDS011;46198;51.464;-0.066;2023-04-16T07:41:31;20.08;;;14.27;;
60354;SDS011;46198;51.464;-0.066;2023-04-16T07:43:59;24.90;;;14.77;;
60354;SDS011;46198;51.464;-0.066;2023-04-16T07:46:29;19.95;;;12.60;;
60354;SDS011;46198;51.464;-0.066;2023-04-16T07:49:12;17.13;;;12.52;;
60354;SDS011;46198;51.464;-0.066;2023-04-16T07:51:40;23.23;;;13.13;;
60354;SDS011;46198;51.464;-0.066;2023-04-16T07:54:09;18.52;;;12.15;;
60354;SDS011;46198;51.464;-0.066;2023-04-16T07:56:37;19.98;;;12.60;;
60354;SDS011;46198;51.464;-0.066;2023-04-16T07:59:05;17.33;;;11.88;;
60354;SDS011;46198;51.464;-0.066;2023-04-16T08:01:50;14.55;;;11.05;;
60354;SDS011;46198;51.464;-0.066;2023-04-16T08:06:51;14.38;;;10.18;;
60354;SDS011;46198;51.464;-0.066;2023-04-16T08:09:22;16.60;;;10.50;;
60354;SDS011;46198;51.464;-0.066;2023-04-16T08:11:53;14.55;;;9.60;;
60354;SDS011;46198;51.464;-0.066;2023-04-16T08:14:21;15.02;;;10.43;;
60354;SDS011;46198;51.464;-0.066;2023-04-16T08:16:50;15.93;;;10.65;;
60354;SDS011;46198;51.464;-0.066;2023-04-16T08:19:18;13.30;;;9.80;;
60354;SDS011;46198;51.464;-0.066;2023-04-16T08:21:47;14.23;;;9.98;;
60354;SDS011;46198;51.464;-0.066;2023-04-16T08:24:15;19.00;;;11.38;;
60354;SDS011;46198;51.464;-0.066;2023-04-16T08:26:43;14.40;;;11.10;;
60354;SDS011;46198;51.464;-0.066;2023-04-16T08:29:11;17.23;;;10.90;;
60354;SDS011;46198;51.464;-0.066;2023-04-16T08:31:39;15.88;;;11.57;;
60354;SDS011;46198;51.464;-0.066;2023-04-16T08:34:09;21.77;;;12.43;;
60354;SDS011;46198;51.464;-0.066;2023-04-16T08:36:38;18.25;;;12.13;;
60354;SDS011;46198;51.464;-0.066;2023-04-16T08:39:06;19.13;;;11.88;;
60354;SDS011;46198;51.464;-0.066;2023-04-16T08:41:35;17.20;;;11.90;;
60354;SDS011;46198;51.464;-0.066;2023-04-16T08:44:08;16.92;;;10.98;;
60354;SDS011;46198;51.464;-0.066;2023-04-16T08:46:38;17.33;;;11.10;;
60354;SDS011;46198;51.464;-0.066;2023-04-16T08:49:10;16.92;;;9.35;;
60354;SDS011;46198;51.464;-0.066;2023-04-16T08:51:44;12.90;;;9.93;;
60354;SDS011;46198;51.464;-0.066;2023-04-16T08:54:20;12.95;;;8.85;;
60354;SDS011;46198;51.464;-0.066;2023-04-16T08:56:57;11.50;;;8.25;;
60354;SDS011;46198;51.464;-0.066;2023-04-16T08:59:26;9.23;;;6.85;;
60354;SDS011;46198;51.464;-0.066;2023-04-16T09:01:56;8.15;;;5.78;;
60354;SDS011;46198;51.464;-0.066;2023-04-16T09:04:27;8.98;;;6.10;;
60354;SDS011;46198;51.464;-0.066;2023-04-16T09:06:55;9.07;;;5.73;;
60354;SDS011;46198;51.464;-0.066;2023-04-16T09:09:25;7.93;;;6.60;;
60354;SDS011;46198;51.464;-0.066;2023-04-16T09:11:54;7.35;;;5.45;;
60354;SDS011;46198;51.464;-0.066;2023-04-16T09:14:22;5.85;;;5.15;;
60354;SDS011;46198;51.464;-0.066;2023-04-16T09:16:50;7.18;;;6.03;;
60354;SDS011;46198;51.464;-0.066;2023-04-16T09:19:20;10.25;;;6.20;;
60354;SDS011;46198;51.464;-0.066;2023-04-16T09:21:49;11.90;;;6.78;;
60354;SDS011;46198;51.464;-0.066;2023-04-16T09:24:17;9.52;;;6.30;;
60354;SDS011;46198;51.464;-0.066;2023-04-16T09:26:45;7.97;;;6.18;;
60354;SDS011;46198;51.464;-0.066;2023-04-16T09:29:23;9.85;;;5.45;;
60354;SDS011;46198;51.464;-0.066;2023-04-16T09:32:00;9.20;;;5.70;;
60354;SDS011;46198;51.464;-0.066;2023-04-16T09:34:30;6.95;;;5.47;;
60354;SDS011;46198;51.464;-0.066;2023-04-16T09:37:16;8.38;;;5.20;;
60354;SDS011;46198;51.464;-0.066;2023-04-16T09:39:44;6.00;;;4.82;;
60354;SDS011;46198;51.464;-0.066;2023-04-16T09:42:20;7.18;;;5.53;;
60354;SDS011;46198;51.464;-0.066;2023-04-16T09:44:50;7.63;;;5.38;;
60354;SDS011;46198;51.464;-0.066;2023-04-16T09:47:19;7.13;;;5.35;;
60354;SDS011;46198;51.464;-0.066;2023-04-16T09:49:48;9.60;;;4.88;;
60354;SDS011;46198;51.464;-0.066;2023-04-16T09:52:19;5.45;;;4.80;;
60354;SDS011;46198;51.464;-0.066;2023-04-16T09:54:49;8.40;;;5.60;;
60354;SDS011;46198;51.464;-0.066;2023-04-16T09:57:19;4.65;;;3.92;;
60354;SDS011;46198;51.464;-0.066;2023-04-16T09:59:51;5.07;;;3.50;;
60354;SDS011;46198;51.464;-0.066;2023-04-16T10:02:19;3.90;;;2.75;;
60354;SDS011;46198;51.464;-0.066;2023-04-16T10:04:50;3.65;;;3.30;;
60354;SDS011;46198;51.464;-0.066;2023-04-16T10:07:20;3.70;;;3.30;;
60354;SDS011;46198;51.464;-0.066;2023-04-16T10:09:48;3.45;;;2.92;;
60354;SDS011;46198;51.464;-0.066;2023-04-16T10:12:18;3.28;;;2.97;;
60354;SDS011;46198;51.464;-0.066;2023-04-16T10:14:47;4.93;;;3.17;;
60354;SDS011;46198;51.464;-0.066;2023-04-16T10:17:16;4.05;;;3.60;;
60354;SDS011;46198;51.464;-0.066;2023-04-16T10:19:44;5.97;;;3.78;;
60354;SDS011;46198;51.464;-0.066;2023-04-16T10:22:12;3.22;;;2.38;;
60354;SDS011;46198;51.464;-0.066;2023-04-16T10:24:42;2.90;;;2.40;;
60354;SDS011;46198;51.464;-0.066;2023-04-16T10:27:10;3.38;;;2.42;;
60354;SDS011;46198;51.464;-0.066;2023-04-16T10:29:38;2.75;;;2.50;;
60354;SDS011;46198;51.464;-0.066;2023-04-16T10:32:07;4.63;;;2.35;;
60354;SDS011;46198;51.464;-0.066;2023-04-16T10:34:35;2.85;;;1.98;;
60354;SDS011;46198;51.464;-0.066;2023-04-16T10:37:04;2.28;;;1.80;;
60354;SDS011;46198;51.464;-0.066;2023-04-16T10:39:33;2.13;;;1.58;;
60354;SDS011;46198;51.464;-0.066;2023-04-16T10:42:08;2.08;;;1.77;;
60354;SDS011;46198;51.464;-0.066;2023-04-16T10:44:38;3.88;;;2.10;;
60354;SDS011;46198;51.464;-0.066;2023-04-16T10:47:10;4.90;;;3.22;;
60354;SDS011;46198;51.464;-0.066;2023-04-16T10:49:40;2.63;;;2.08;;
60354;SDS011;46198;51.464;-0.066;2023-04-16T10:52:09;3.97;;;2.08;;
60354;SDS011;46198;51.464;-0.066;2023-04-16T10:54:39;2.97;;;2.03;;
60354;SDS011;46198;51.464;-0.066;2023-04-16T10:57:09;3.22;;;2.10;;
60354;SDS011;46198;51.464;-0.066;2023-04-16T10:59:44;2.65;;;2.08;;
60354;SDS011;46198;51.464;-0.066;2023-04-16T11:02:13;4.68;;;2.42;;
60354;SDS011;46198;51.464;-0.066;2023-04-16T11:04:43;4.47;;;2.47;;
60354;SDS011;46198;51.464;-0.066;2023-04-16T11:07:17;5.05;;;2.92;;
60354;SDS011;46198;51.464;-0.066;2023-04-16T11:09:56;6.40;;;3.08;;
60354;SDS011;46198;51.464;-0.066;2023-04-16T11:12:32;4.82;;;2.65;;
60354;SDS011;46198;51.464;-0.066;2023-04-16T11:15:03;12.15;;;6.80;;
60354;SDS011;46198;51.464;-0.066;2023-04-16T11:17:35;4.32;;;2.63;;
60354;SDS011;46198;51.464;-0.066;2023-04-16T11:20:04;4.75;;;2.53;;
60354;SDS011;46198;51.464;-0.066;2023-04-16T11:22:45;3.15;;;2.53;;
60354;SDS011;46198;51.464;-0.066;2023-04-16T11:25:18;2.58;;;1.98;;
60354;SDS011;46198;51.464;-0.066;2023-04-16T11:27:48;4.13;;;2.30;;
60354;SDS011;46198;51.464;-0.066;2023-04-16T11:30:18;3.53;;;2.25;;
60354;SDS011;46198;51.464;-0.066;2023-04-16T11:32:54;4.00;;;2.65;;
60354;SDS011;46198;51.464;-0.066;2023-04-16T11:35:23;3.10;;;2.75;;
60354;SDS011;46198;51.464;-0.066;2023-04-16T11:37:54;2.97;;;2.42;;
60354;SDS011;46198;51.464;-0.066;2023-04-16T11:40:23;5.45;;;3.08;;
60354;SDS011;46198;51.464;-0.066;2023-04-16T11:42:53;3.65;;;2.63;;
60354;SDS011;46198;51.464;-0.066;2023-04-16T11:45:21;3.88;;;2.80;;
60354;SDS011;46198;51.464;-0.066;2023-04-16T11:47:49;4.18;;;2.80;;
60354;SDS011;46198;51.464;-0.066;2023-04-16T11:50:23;4.35;;;2.45;;
60354;SDS011;46198;51.464;-0.066;2023-04-16T11:52:53;3.75;;;2.65;;
60354;SDS011;46198;51.464;-0.066;2023-04-16T11:55:22;2.70;;;1.90;;
60354;SDS011;46198;51.464;-0.066;2023-04-16T11:57:52;2.97;;;2.40;;
60354;SDS011;46198;51.464;-0.066;2023-04-16T12:00:21;2.50;;;2.20;;
60354;SDS011;46198;51.464;-0.066;2023-04-16T12:02:51;5.10;;;3.17;;
60354;SDS011;46198;51.464;-0.066;2023-04-16T12:05:27;6.22;;;3.28;;
60354;SDS011;46198;51.464;-0.066;2023-04-16T12:07:56;3.88;;;2.90;;
60354;SDS011;46198;51.464;-0.066;2023-04-16T12:10:25;3.42;;;2.38;;
60354;SDS011;46198;51.464;-0.066;2023-04-16T12:12:55;4.75;;;2.20;;
60354;SDS011;46198;51.464;-0.066;2023-04-16T12:15:43;5.07;;;3.85;;
60354;SDS011;46198;51.464;-0.066;2023-04-16T12:18:12;3.85;;;2.28;;
60354;SDS011;46198;51.464;-0.066;2023-04-16T12:20:42;5.20;;;2.47;;
60354;SDS011;46198;51.464;-0.066;2023-04-16T12:28:03;2.75;;;2.15;;
60354;SDS011;46198;51.464;-0.066;2023-04-16T12:30:32;2.90;;;2.17;;
60354;SDS011;46198;51.464;-0.066;2023-04-16T12:33:12;3.92;;;2.58;;
60354;SDS011;46198;51.464;-0.066;2023-04-16T12:35:42;3.55;;;2.33;;
60354;SDS011;46198;51.464;-0.066;2023-04-16T12:38:10;5.28;;;2.47;;
60354;SDS011;46198;51.464;-0.066;2023-04-16T12:40:40;5.00;;;2.47;;
60354;SDS011;46198;51.464;-0.066;2023-04-16T12:43:10;4.00;;;2.50;;
60354;SDS011;46198;51.464;-0.066;2023-04-16T12:45:38;2.85;;;2.28;;
60354;SDS011;46198;51.464;-0.066;2023-04-16T12:48:06;2.63;;;2.42;;
60354;SDS011;46198;51.464;-0.066;2023-04-16T12:50:35;3.50;;;3.20;;
60354;SDS011;46198;51.464;-0.066;2023-04-16T12:53:06;3.38;;;2.45;;
60354;SDS011;46198;51.464;-0.066;2023-04-16T12:55:34;4.18;;;2.65;;
60354;SDS011;46198;51.464;-0.066;2023-04-16T12:58:02;4.90;;;2.95;;
60354;SDS011;46198;51.464;-0.066;2023-04-16T13:00:31;4.85;;;2.40;;
60354;SDS011;46198;51.464;-0.066;2023-04-16T13:02:59;3.78;;;2.15;;
60354;SDS011;46198;51.464;-0.066;2023-04-16T13:05:27;3.10;;;2.40;;
60354;SDS011;46198;51.464;-0.066;2023-04-16T13:07:55;4.72;;;3.33;;
60354;SDS011;46198;51.464;-0.066;2023-04-16T13:10:23;3.08;;;2.25;;
60354;SDS011;46198;51.464;-0.066;2023-04-16T13:12:53;3.05;;;2.63;;
60354;SDS011;46198;51.464;-0.066;2023-04-16T13:15:21;3.15;;;2.30;;
60354;SDS011;46198;51.464;-0.066;2023-04-16T13:17:50;9.60;;;4.57;;
60354;SDS011;46198;51.464;-0.066;2023-04-16T13:20:19;3.95;;;3.35;;
60354;SDS011;46198;51.464;-0.066;2023-04-16T13:22:49;3.03;;;2.17;;
60354;SDS011;46198;51.464;-0.066;2023-04-16T13:25:17;2.40;;;2.10;;
60354;SDS011;46198;51.464;-0.066;2023-04-16T13:27:46;2.72;;;1.90;;
60354;SDS011;46198;51.464;-0.066;2023-04-16T13:30:14;7.80;;;4.75;;
60354;SDS011;46198;51.464;-0.066;2023-04-16T13:32:42;3.25;;;2.13;;
60354;SDS011;46198;51.464;-0.066;2023-04-16T13:38:05;2.15;;;1.63;;
60354;SDS011;46198;51.464;-0.066;2023-04-16T13:46:20;13.02;;;6.97;;
60354;SDS011;46198;51.464;-0.066;2023-04-16T13:48:49;2.58;;;2.10;;
60354;SDS011;46198;51.464;-0.066;2023-04-16T13:51:18;4.15;;;2.50;;
60354;SDS011;46198;51.464;-0.066;2023-04-16T13:53:47;2.25;;;1.83;;
60354;SDS011;46198;51.464;-0.066;2023-04-16T13:56:15;2.53;;;1.55;;
60354;SDS011;46198;51.464;-0.066;2023-04-16T13:58:43;2.95;;;2.67;;
60354;SDS011;46198;51.464;-0.066;2023-04-16T14:01:11;3.85;;;2.00;;
60354;SDS011;46198;51.464;-0.066;2023-04-16T14:03:39;2.90;;;1.85;;
60354;SDS011;46198;51.464;-0.066;2023-04-16T14:06:08;2.55;;;1.75;;
60354;SDS011;46198;51.464;-0.066;2023-04-16T14:11:31;4.20;;;2.55;;
60354;SDS011;46198;51.464;-0.066;2023-04-16T14:13:59;5.25;;;3.55;;
60354;SDS011;46198;51.464;-0.066;2023-04-16T14:16:27;6.57;;;4.55;;
60354;SDS011;46198;51.464;-0.066;2023-04-16T14:18:55;2.75;;;2.00;;
60354;SDS011;46198;51.464;-0.066;2023-04-16T14:21:24;2.53;;;1.60;;
60354;SDS011;46198;51.464;-0.066;2023-04-16T14:23:52;2.80;;;2.00;;
60354;SDS011;46198;51.464;-0.066;2023-04-16T14:26:21;4.03;;;2.22;;
60354;SDS011;46198;51.464;-0.066;2023-04-16T14:28:50;3.25;;;1.92;;
60354;SDS011;46198;51.464;-0.066;2023-04-16T14:31:18;2.30;;;1.60;;
60354;SDS011;46198;51.464;-0.066;2023-04-16T14:33:46;5.15;;;2.70;;
60354;SDS011;46198;51.464;-0.066;2023-04-16T14:36:18;3.72;;;2.53;;
60354;SDS011;46198;51.464;-0.066;2023-04-16T14:38:46;4.32;;;1.90;;
60354;SDS011;46198;51.464;-0.066;2023-04-16T14:41:15;2.03;;;1.52;;
60354;SDS011;46198;51.464;-0.066;2023-04-16T14:43:45;2.17;;;1.65;;
60354;SDS011;46198;51.464;-0.066;2023-04-16T14:46:13;3.35;;;2.42;;
60354;SDS011;46198;51.464;-0.066;2023-04-16T14:48:43;5.30;;;2.58;;
60354;SDS011;46198;51.464;-0.066;2023-04-16T14:51:11;4.38;;;1.83;;
60354;SDS011;46198;51.464;-0.066;2023-04-16T14:53:39;3.03;;;1.80;;
60354;SDS011;46198;51.464;-0.066;2023-04-16T14:56:07;5.90;;;2.28;;